Tiempo atmosférico en la estación meteorológica de Puerto El Pico, Ávila (1285 m.)



Fecha
DESCASC
Temp. máxima en grados centígrados (hora)
DESCASC
Temp. mínima en grados centígrados (hora)
DESCASC
Temp. media en grados centígrados
DESCASC
Racha de viento máxima en m/sg (hora)
DESCASC
Velocidad máxima media en intervalos de 10 minutos(hora)
DESCASC
Precipitaciones diarias en mm
DESCASC
Precipitaciones de 00:00 a 06:00 en mm
DESCASC
Precipitaciones de 06:00 a 12:00 en mm
DESCASC
Precipitaciones de 12:00 a 18:00 en mm
DESCASC
Precipitaciones de 18:00 a 24:00 en mm
DESCASC
18-01-2019 4.6 (14:10) -10.4 (08:40) -2.9 7.22 (17:10) 4.72 (17:10) 0 0 0 0 0
17-01-2019 5.6 (14:20) -7.1 (-00:0) -0.8 7.78 (14:30) 5.56 (14:30) 0 0 0 0 0
16-01-2019 5.6 (14:50) -9 (-00:0) -1.7 10 (13:40) 5.83 (13:30) 0 0 0 0 0
15-01-2019 11.1 (13:00) -8.3 (-00:0) 1.4 8.89 (15:00) 4.44 (15:00) 0 0 0 0 0
14-01-2019 16.7 (15:30) -5.7 (-00:0) 5.5 5 (16:00) 2.5 (15:00) 0 0 0 0 0
13-01-2019 12.6 (15:50) -9.8 (-00:0) 1.4 7.22 (15:00) 4.72 (15:00) 0 0 0 0 0
12-01-2019 10.5 (15:30) -9.9 (-00:0) 0.3 7.78 (17:20) 5.56 (17:20) 0 0 0 0 0
11-01-2019 5 (15:20) -8.2 (-00:0) -1.6 6.67 (15:50) 4.17 (17:20) 0 0 0 0 0
10-01-2019 6.7 (15:00) -6.4 (-00:0) 0.1 7.22 (14:40) 4.72 (17:30) 0 0 0 0 0
09-01-2019 9.7 (14:40) -1.8 (-00:0) 3.9 10.83 (03:30) 7.78 (03:30) 0 0 0 0 0
08-01-2019 14.7 (15:30) -8.2 (-00:0) 3.3 6.11 (22:50) 3.89 (17:20) 0 0 0 0 0
07-01-2019 12.4 (15:10) -8.4 (-00:0) 2 9.17 (16:00) 6.94 (16:00) 0 0 0 0 0
06-01-2019 12.4 (16:00) -9.6 (-00:0) 1.4 10.28 (16:20) 7.22 (16:20) 0 0 0 0 0
05-01-2019 14.5 (14:10) -9.9 (-00:0) 2.3 5.28 (15:30) 3.06 (15:30) 0 0 0 0 0
04-01-2019 11.5 (15:50) -9.7 (-00:0) 0.9 4.72 (15:00) 2.78 (15:00) 0 0 0 0 0
03-01-2019 11 (14:30) -9.3 (-00:0) 0.8 5.83 (15:40) 3.33 (14:50) 0 0 0 0 0
02-01-2019 14.3 (16:20) -7.8 (-00:0) 3.3 5.28 (13:10) 3.06 (13:20) 0 0 0 0 0
01-01-2019 18 (15:40) -6.9 (-00:0) 5.5 5.28 (13:50) 3.06 (15:10) 0 0 0 0 0
31-12-2018 14.9 (15:20) -8.1 (-00:0) 3.4 5.83 (15:30) 3.06 (15:30) 0 0 0 0 0
30-12-2018 13.5 (15:50) -7.9 (-00:0) 2.8 5.83 (16:20) 3.06 (14:30) 0 0 0 0 0
29-12-2018 9.8 (15:20) -5.1 (-00:0) 2.4 7.5 (13:30) 4.17 (13:30) 0 0 0 0 0
28-12-2018 11.2 (14:50) -4.4 (-00:0) 3.4 8.33 (15:20) 5 (15:20) 0 0 0 0 0
27-12-2018 13.8 (14:10) -5.9 (-00:0) 4 5.56 (15:00) 3.33 (14:40) 0 0 0 0 0
26-12-2018 17.6 (15:50) -5.1 (-00:0) 6.3 5.83 (13:50) 3.61 (13:50) 0 0 0 0 0
25-12-2018 15.8 (13:40) -3.7 (-00:0) 6.1 5.28 (14:10) 3.61 (16:10) 0 0 0 0 0
24-12-2018 15.8 (14:50) -5.8 (08:30) 5 1.67 (17:50) 1.11 (15:20) 0 0 0 0 0
23-12-2018 13.1 (15:40) -5.2 (-00:0) 4 9.44 (13:20) 5.56 (13:20) 0.2 0 0.2 0 0
22-12-2018 12.6 (15:50) -4 (-00:0) 4.3 6.11 (15:20) 3.06 (14:10) 0 0 0 0 0
21-12-2018 11.3 (13:00) -3.3 (08:30) 4 7.22 (14:10) 4.72 (14:10) 0 0 0 0 0

Gráficas

Temp. máximas Temp. mínimas Temp. medias Precipitaciones Rachas de viento máximas Velocidades máximas media en intervalos de 10 minutos

Datos horarios

Fecha y hora oficial Temperatura (ºC) Velocidad del viento (km/h) Dirección del viento Racha (km/h) Dirección de racha Precipitación (mm) Presión (hPa) Tendencia (hPa) Humedad (%)
2019-01-19 23:00:00 2.4 13 Sur 22 Sur 0 -- -- 98
2019-01-19 22:00:00 2.3 12 Sur 24 Sudoeste 0 -- -- 97
2019-01-19 21:00:00 2.1 11 Sur 22 Sur 0 -- -- 99
2019-01-19 20:00:00 1 11 Sur 26 Sur 0.4 -- -- 100
2019-01-19 19:00:00 0.4 16 Sur 27 Sudoeste 0.4 -- -- 99
2019-01-19 18:00:00 0.4 14 Sur 28 Sur 0.4 -- -- 99
2019-01-19 17:00:00 0.5 16 Sur 28 Sur 0 -- -- 98
2019-01-19 16:00:00 1 14 Sur 28 Sudoeste 0 -- -- 97
2019-01-19 15:00:00 0.3 16 Sur 30 Sudoeste 0.2 -- -- 96
2019-01-19 14:00:00 1.6 9 Sur 30 Sudoeste 0.6 -- -- 93
2019-01-19 13:00:00 1.5 16 Sur 28 Sur 0 -- -- 84
2019-01-19 12:00:00 1.2 15 Sur 24 Sudoeste 0 -- -- 77
2019-01-19 11:00:00 1.3 13 Sur 21 Sur 0 -- -- 78
2019-01-19 10:00:00 -2 2 Norte 8 Sudeste 0 -- -- 96
2019-01-19 09:00:00 -4.3 2 Sur 5 Sur 0 -- -- 97
2019-01-19 08:00:00 -5.2 0 Calma 6 Este 0 -- -- 96
2019-01-19 07:00:00 -6 0 Calma 4 Nordeste 0 -- -- 96
2019-01-19 06:00:00 -6.2 2 Sur 6 Sur 0 -- -- 95
2019-01-19 05:00:00 -7.3 0 Calma 5 Oeste 0 -- -- 97
2019-01-19 04:00:00 -6.5 0 Calma 6 Sur 0 -- -- 97
2019-01-19 03:00:00 -5.9 0 Calma 5 Sur 0 -- -- 96
2019-01-19 02:00:00 -5.2 0 Calma 6 Nordeste 0 -- -- 93
2019-01-19 01:00:00 -2.3 4 Nordeste 13 Norte 0 -- -- 87
2019-01-19 00:00:00 -1.5 0 Calma 15 Este 0 -- -- 86
2019-01-18 23:00:00 -1.1 2 Este 6 Sudeste 0 -- -- 87
2019-01-18 22:00:00 -3.5 0 Calma 4 Nordeste 0 -- -- 91
2019-01-18 21:00:00 -2.8 3 Sur 10 Este 0 -- -- 85
2019-01-18 20:00:00 0.7 4 Noroeste 14 Este 0 -- -- 71
2019-01-18 19:00:00 0.9 4 Nordeste 12 Nordeste 0 -- -- 67
2019-01-18 18:00:00 1.9 10 Nordeste 26 Norte 0 -- -- 64
2019-01-18 17:00:00 2.6 6 Norte 20 Sudoeste 0 -- -- 60
2019-01-18 16:00:00 2.8 13 Sur 25 Sur 0 -- -- 67
2019-01-18 15:00:00 2.5 6 Sur 20 Sur 0 -- -- 66
2019-01-18 14:00:00 4.3 4 Oeste 18 Oeste 0 -- -- 48
2019-01-18 13:00:00 3.7 5 Norte 14 Norte 0 -- -- 54
2019-01-18 12:00:00 0.2 4 Norte 9 Oeste 0 -- -- 87
2019-01-18 11:00:00 -3.7 3 Sudoeste 5 Sudoeste 0 -- -- 93
2019-01-18 10:00:00 -6.5 0 Calma 5 Nordeste 0 -- -- 95
2019-01-18 09:00:00 -9.9 4 Sur 8 Sudoeste 0 -- -- 95
2019-01-18 08:00:00 -8.5 0 Calma 6 Sudeste 0 -- -- 93
2019-01-18 07:00:00 -9.8 0 Calma 6 Sudoeste 0 -- -- 94
2019-01-18 06:00:00 -9.6 0 Calma 5 Sudoeste 0 -- -- 96
2019-01-18 05:00:00 -9.1 0 Calma 8 Sudoeste 0 -- -- 94
2019-01-18 04:00:00 -9.6 3 Sur 5 Sudoeste 0 -- -- 94
2019-01-18 03:00:00 -8.4 0 Calma 6 Sudeste 0 -- -- 95
2019-01-18 02:00:00 -7.4 4 Nordeste 6 Este 0 -- -- 95
2019-01-18 01:00:00 -7.3 0 Calma 4 Noroeste 0 -- -- 98
2019-01-18 00:00:00 -6.9 0 Calma 5 Este 0 -- -- 97
2019-01-17 23:00:00 -5.7 0 Calma 5 Sur 0 -- -- 95
2019-01-17 22:00:00 -4.5 2 Noroeste 8 Nordeste 0 -- -- 92
2019-01-17 21:00:00 -3.5 0 Calma 14 Nordeste 0 -- -- 92
2019-01-17 20:00:00 -0.8 10 Nordeste 21 Nordeste 0 -- -- 85
2019-01-17 19:00:00 0.6 9 Norte 16 Nordeste 0 -- -- 83
2019-01-17 18:00:00 1.6 8 Nordeste 19 Nordeste 0 -- -- 81
2019-01-17 17:00:00 2.3 9 Nordeste 21 Este 0 -- -- 81
2019-01-17 16:00:00 3.7 8 Nordeste 22 Norte 0 -- -- 78
2019-01-17 15:00:00 3.1 17 Norte 28 Norte 0 -- -- 81
2019-01-17 14:00:00 5.4 13 Norte 25 Norte 0 -- -- 71
2019-01-17 13:00:00 3.8 16 Norte 26 Norte 0 -- -- 78
2019-01-17 12:00:00 5 15 Norte 26 Norte 0 -- -- 75
2019-01-17 11:00:00 2.7 12 Norte 24 Norte 0 -- -- 91
2019-01-17 10:00:00 1.1 15 Norte 22 Norte 0 -- -- 96
2019-01-17 09:00:00 -1.4 0 Calma 5 Nordeste 0 -- -- 97
2019-01-17 08:00:00 -0.8 2 Norte 11 Nordeste 0 -- -- 95
2019-01-17 07:00:00 -1.2 3 Norte 6 Norte 0 -- -- 96
2019-01-17 06:00:00 -1.4 3 Nordeste 6 Norte 0 -- -- 95
2019-01-17 05:00:00 -1.4 0 Calma 6 Nordeste 0 -- -- 96
2019-01-17 04:00:00 -2 2 Este 5 Norte 0 -- -- 97
2019-01-17 03:00:00 -2.9 5 Norte 12 Norte 0 -- -- 97
2019-01-17 02:00:00 -3.9 3 Nordeste 7 Nordeste 0 -- -- 99
2019-01-17 01:00:00 -2.8 0 Calma 4 Nordeste 0 -- -- 97
2019-01-17 00:00:00 -1.4 0 Calma 9 Este 0 -- -- 95
2019-01-16 23:00:00 0.4 6 Nordeste 14 Norte 0 -- -- 88
2019-01-16 22:00:00 2.2 5 Norte 12 Oeste 0 -- -- 86
2019-01-16 21:00:00 1.9 0 Calma 9 Nordeste 0 -- -- 95
2019-01-16 20:00:00 -0.8 0 Calma 3 Sudoeste 0 -- -- 99
2019-01-16 19:00:00 -1.3 0 Calma 14 Sudoeste 0 -- -- 98
2019-01-16 18:00:00 1 10 Sur 27 Sudoeste 0 -- -- 98
2019-01-16 17:00:00 1.3 16 Sur 28 Sudoeste 0 -- -- 97
2019-01-16 16:00:00 1.7 14 Sur 28 Sudoeste 0 -- -- 94
2019-01-16 15:00:00 4.5 16 Sur 32 Sudoeste 0 -- -- 81
2019-01-16 14:00:00 4.9 15 Sur 36 Sur 0 -- -- 77
2019-01-16 13:00:00 5.1 19 Sur 31 Sur 0 -- -- 71